• Join FlightAware (Why Join?)
  • Login
  • US Flag 
09:42AM EDT


 

Airport Tracker/Info


-or-


 

Live Flight TrackerFlight Track Log ✈ SLI647 ✈ 19-May-2013 ✈ MMMX / MEX - MMMD / MID

Flight Track Log - Related Links

Times and Time Zones

All times are in EDT time to prevent confusion due to time zone crossing. See the SLI647 flight status page for this flight to view local times or setup timezone preferences in your user account.

Time Position Orientation Groundspeed Altitude Reporting Facility
EDT Latitude Longitude Course Direction KTS MPH feet Rate Location/Type
11:27PM 19.8311 -96.8913 79° East  Level Estimated
11:28PM 19.8853 -96.5789 79° East  Level Estimated
11:29PM 19.9390 -96.2663 80° East  Level Estimated
11:30PM 19.9922 -95.9535 80° East  Level Estimated
11:31PM 20.0448 -95.6404 80° East  Level Estimated
11:32PM 20.0968 -95.3272 80° East  Level Estimated
11:33PM 20.1483 -95.0137 80° East  Level Estimated
11:34PM 20.1993 -94.7001 80° East  Level Estimated
11:35PM 20.2496 -94.3862 80° East  Level Estimated
11:36PM 20.2995 -94.0722 80° East  Level Estimated
11:37PM 20.3487 -93.7579 80° East  Level Estimated
11:38PM 20.3974 -93.4434 81° East  Level Estimated
11:39PM 20.4456 -93.1288 81° East  Level Estimated
11:40PM 20.4931 -92.8139 81° East  Level Estimated
11:41PM 20.5401 -92.4988 81° East  Level Estimated
11:42PM 20.5866 -92.1836 81° East  Level Estimated
11:43PM 20.6324 -91.8681 81° East  Level Estimated
11:44PM 20.6777 -91.5525 81° East  Level Estimated
11:45PM 20.7225 -91.2367 81° East  Level Estimated
11:46PM 20.7666 -90.9207 81° East  Level Estimated
11:47PM 20.8102 -90.6045 82° East  Level Estimated
11:48PM 20.8531 -90.2881 82° East  Level Estimated
11:49PM 20.8955 -89.9716 82° East  Level Estimated
11:50PM 20.9370 -89.6577 82° East  Level Estimated
11:51PM 20.9370 -89.6577 298° West  Level Estimated
11:52PM 20.9370 -89.6577 298° West  Level Estimated
11:53PM 20.9370 -89.6577 298° West  Level Estimated
11:54PM 20.9370 -89.6577 298° West  Level Estimated
11:55PM 20.9370 -89.6577 298° West  Level Estimated
11:56PM 20.9370 -89.6577 298° West  Level Estimated
11:57PM 20.9370 -89.6577 298° West  Level Estimated
11:58PM 20.9370 -89.6577 298° West  Level Estimated
11:59PM 20.9370 -89.6577 298° West  Level Estimated
12:00AM 20.9370 -89.6577 298° West  Level Estimated
12:01AM 20.9370 -89.6577 298° West  Level Estimated
12:02AM 20.9370 -89.6577 298° West  Level Estimated
12:03AM 20.9370 -89.6577 298° West  Level Estimated
12:04AM 20.9370 -89.6577 298° West  Level Estimated
12:05AM 20.9370 -89.6577 298° West  Level Estimated
12:06AM 20.9370 -89.6577 298° West  Level Estimated